Time;durP1;ratioP1;P1;durP2;ratioP2;P2;SDS_P1;SDS_P2;PMS_P1;PMS_P2;Temp;Humidity;BMP_temperature;BMP_pressure;BME280_temperature;BME280_humidity;BME280_pressure;Samples;Min_cycle;Max_cycle;Signal;HPM_P1;HPM_P2
2024/03/16 00:00:45;;;;;;;14.55;8.18;;;;;;;12.52;100.00;98498.97;4987202;28;20145;-66
2024/03/16 00:03:10;;;;;;;13.93;8.25;;;;;;;12.58;100.00;98512.22;4968252;28;20049;-67
2024/03/16 00:05:42;;;;;;;13.75;7.40;;;;;;;12.43;100.00;98508.56;4990173;28;20042;-67
2024/03/16 00:08:07;;;;;;;14.40;6.72;;;;;;;12.34;100.00;98484.28;4973678;28;20373;-66
2024/03/16 00:10:35;;;;;;;11.85;7.05;;;;;;;12.24;100.00;98479.19;4957761;28;20054;-66
2024/03/16 00:13:00;;;;;;;13.13;7.88;;;;;;;12.48;100.00;98516.72;4958036;28;20220;-66
2024/03/16 00:15:26;;;;;;;11.27;7.10;;;;;;;12.37;100.00;98520.44;4984201;28;20447;-66
2024/03/16 00:17:52;;;;;;;13.63;7.50;;;;;;;12.40;100.00;98520.13;4958362;28;20037;-67
2024/03/16 00:20:18;;;;;;;12.05;7.35;;;;;;;12.55;100.00;98516.91;4965036;28;20034;-65
2024/03/16 00:22:44;;;;;;;10.55;7.35;;;;;;;12.42;100.00;98510.38;4964642;28;20850;-67
2024/03/16 00:25:11;;;;;;;10.65;7.15;;;;;;;12.38;100.00;98501.22;4970454;28;20034;-68
2024/03/16 00:27:39;;;;;;;10.80;7.53;;;;;;;12.35;100.00;98521.59;4973103;28;20064;-65
2024/03/16 00:30:06;;;;;;;12.93;8.20;;;;;;;12.28;100.00;98511.81;4953844;28;20405;-65
2024/03/16 00:32:32;;;;;;;13.18;7.88;;;;;;;12.15;100.00;98497.56;4969519;28;20456;-65
2024/03/16 00:34:57;;;;;;;10.45;7.13;;;;;;;11.96;100.00;98478.59;4962614;28;20576;-66
2024/03/16 00:37:22;;;;;;;11.10;7.22;;;;;;;12.24;100.00;98514.88;4973225;28;20029;-66
2024/03/16 00:39:50;;;;;;;12.23;8.00;;;;;;;12.26;100.00;98507.72;4988866;28;20543;-66
2024/03/16 00:42:16;;;;;;;15.80;9.10;;;;;;;12.00;100.00;98479.91;4959265;28;20072;-66
2024/03/16 00:44:41;;;;;;;16.55;9.13;;;;;;;12.22;100.00;98519.44;4960295;28;20055;-66
2024/03/16 00:47:06;;;;;;;15.20;8.23;;;;;;;12.19;100.00;98514.53;4956423;28;20129;-66
2024/03/16 00:49:34;;;;;;;13.85;8.15;;;;;;;12.16;100.00;98514.84;4985433;28;20038;-66
2024/03/16 00:52:00;;;;;;;14.50;8.70;;;;;;;12.13;100.00;98517.75;4969740;28;20038;-66
2024/03/16 00:54:25;;;;;;;11.88;7.10;;;;;;;12.20;100.00;98529.19;4968290;28;20096;-67
2024/03/16 00:56:53;;;;;;;16.30;7.57;;;;;;;12.11;100.00;98521.34;4978305;28;20054;-66
2024/03/16 00:59:19;;;;;;;11.00;7.40;;;;;;;12.15;100.00;98513.22;4971240;28;20045;-66
2024/03/16 01:01:47;;;;;;;10.15;7.03;;;;;;;12.15;100.00;98513.22;4975403;28;20503;-66
2024/03/16 01:04:12;;;;;;;11.90;7.22;;;;;;;12.18;100.00;98518.13;4996449;28;20764;-66
2024/03/16 01:06:38;;;;;;;12.52;7.30;;;;;;;12.11;100.00;98508.31;4976667;28;20477;-66
2024/03/16 01:09:04;;;;;;;12.15;6.97;;;;;;;11.90;100.00;98489.63;4978602;28;20038;-67
2024/03/16 01:11:32;;;;;;;12.88;7.93;;;;;;;11.90;100.00;98508.72;4973201;28;20061;-66
2024/03/16 01:13:57;;;;;;;13.55;8.45;;;;;;;11.95;100.00;98523.88;4977091;28;20160;-66
2024/03/16 01:16:26;;;;;;;11.05;7.30;;;;;;;11.98;100.00;98518.34;4960001;28;20756;-66
2024/03/16 01:18:51;;;;;;;10.60;7.45;;;;;;;12.01;100.00;98522.41;4961365;28;20037;-66
2024/03/16 01:21:16;;;;;;;12.95;8.10;;;;;;;12.03;100.00;98520.47;4969725;28;20645;-66
2024/03/16 01:23:42;;;;;;;11.05;7.72;;;;;;;12.07;100.00;98516.59;4973149;28;21689;-66
2024/03/16 01:26:07;;;;;;;13.55;7.70;;;;;;;12.07;100.00;98527.03;4959673;28;20045;-66
2024/03/16 01:28:33;;;;;;;12.65;7.40;;;;;;;11.76;100.00;98490.22;4973000;28;20033;-65
2024/03/16 01:31:01;;;;;;;11.68;7.35;;;;;;;12.10;100.00;98521.47;4981763;28;20042;-66
2024/03/16 01:33:26;;;;;;;10.98;7.88;;;;;;;11.68;100.00;98484.00;4984662;28;20101;-65
2024/03/16 01:35:54;;;;;;;13.18;8.13;;;;;;;11.44;100.00;98496.84;4989095;28;20088;-67
2024/03/16 01:38:24;;;;;;;14.52;8.13;;;;;;;11.53;100.00;98519.38;4976854;28;20045;-66
2024/03/16 01:40:49;;;;;;;12.07;7.88;;;;;;;11.34;100.00;98520.38;4978096;28;20041;-66
2024/03/16 01:43:15;;;;;;;13.43;8.73;;;;;;;11.25;100.00;98518.69;4981875;28;20134;-67
2024/03/16 01:45:41;;;;;;;12.10;7.93;;;;;;;11.42;100.00;98517.81;4976800;28;20153;-67
2024/03/16 01:48:10;;;;;;;14.80;8.68;;;;;;;11.38;100.00;98506.09;4979577;28;20049;-67
2024/03/16 01:50:40;;;;;;;11.80;7.97;;;;;;;11.48;100.00;98499.00;4980846;28;20593;-66
2024/03/16 01:53:06;;;;;;;;;;;;;;;11.66;100.00;98506.78;4975969;28;20531;-65
2024/03/16 01:55:33;;;;;;;12.93;7.93;;;;;;;11.71;100.00;98519.31;4956513;28;20404;-65
2024/03/16 01:58:01;;;;;;;11.90;8.02;;;;;;;11.76;100.00;98504.06;4976010;28;20595;-66
2024/03/16 02:00:26;;;;;;;13.48;8.27;;;;;;;11.77;100.00;98489.22;4966184;28;20038;-66
2024/03/16 02:02:54;;;;;;;12.25;8.27;;;;;;;11.44;100.00;98447.38;4978483;28;20029;-66
2024/03/16 02:05:19;;;;;;;13.43;8.70;;;;;;;11.39;100.00;98466.09;4985902;28;20044;-67
2024/03/16 02:07:45;;;;;;;13.77;8.88;;;;;;;11.46;100.00;98487.09;4964371;28;20037;-65
2024/03/16 02:10:12;;;;;;;11.57;7.97;;;;;;;11.69;100.00;98495.22;4979243;28;20034;-67
2024/03/16 02:12:38;;;;;;;12.68;7.93;;;;;;;11.35;100.00;98490.75;4974700;28;20037;-67
2024/03/16 02:15:07;;;;;;;13.00;7.88;;;;;;;11.35;100.00;98498.56;4958358;28;20038;-66
2024/03/16 02:17:35;;;;;;;12.70;8.30;;;;;;;11.43;100.00;98506.47;4979027;28;20037;-65
2024/03/16 02:20:03;;;;;;;14.18;8.77;;;;;;;11.53;100.00;98504.56;4966502;28;20078;-66
2024/03/16 02:22:29;;;;;;;12.23;8.13;;;;;;;11.43;100.00;98505.66;4976686;28;20103;-66
2024/03/16 02:24:59;;;;;;;11.88;7.82;;;;;;;11.30;100.00;98506.06;4995397;28;20397;-67
2024/03/16 02:27:27;;;;;;;12.73;8.18;;;;;;;11.39;100.00;98506.91;4994259;28;20305;-67
2024/03/16 02:29:58;;;;;;;10.88;7.78;;;;;;;11.47;100.00;98501.75;4959218;28;20050;-68
2024/03/16 02:32:25;;;;;;;11.82;8.32;;;;;;;11.17;100.00;98480.41;5005966;28;20040;-67
2024/03/16 02:34:51;;;;;;;12.85;9.38;;;;;;;11.35;100.00;98517.63;4993177;28;20046;-68
2024/03/16 02:37:16;;;;;;;11.35;8.45;;;;;;;11.23;100.00;98477.19;4963622;28;20037;-67
2024/03/16 02:39:42;;;;;;;14.05;8.98;;;;;;;11.27;100.00;98477.72;4974626;28;20064;-67
2024/03/16 02:42:13;;;;;;;10.13;8.23;;;;;;;11.25;100.00;98458.84;4968698;28;20054;-67
2024/03/16 02:44:40;;;;;;;11.05;7.70;;;;;;;11.28;100.00;98451.53;4977098;28;20030;-67
2024/03/16 02:47:06;;;;;;;12.05;8.35;;;;;;;11.39;100.00;98489.50;4972546;28;20157;-68
2024/03/16 02:49:33;;;;;;;14.00;8.82;;;;;;;11.42;100.00;98472.75;4991532;28;20099;-67
2024/03/16 02:51:59;;;;;;;12.77;8.68;;;;;;;11.40;100.00;98475.50;4974192;28;20959;-66
2024/03/16 02:54:24;;;;;;;13.30;8.05;;;;;;;11.23;100.00;98427.75;4988861;28;20117;-67
2024/03/16 02:56:50;;;;;;;13.52;9.32;;;;;;;11.41;100.00;98461.53;4979232;28;20046;-67
2024/03/16 02:59:15;;;;;;;12.23;9.05;;;;;;;11.52;100.00;98460.47;4981924;28;20042;-67
2024/03/16 03:01:40;;;;;;;12.30;8.93;;;;;;;11.29;100.00;98434.94;4977034;28;20040;-67
2024/03/16 03:04:09;;;;;;;12.65;9.27;;;;;;;11.50;100.00;98468.44;4994161;28;20042;-66
2024/03/16 03:06:34;;;;;;;13.77;8.43;;;;;;;11.48;100.00;98469.53;4960804;28;20045;-67
2024/03/16 03:09:00;;;;;;;12.52;8.38;;;;;;;11.11;100.00;98442.78;4964185;28;20694;-67
2024/03/16 03:11:26;;;;;;;14.25;9.10;;;;;;;11.08;100.00;98448.31;4986372;28;20034;-66
2024/03/16 03:13:54;;;;;;;11.10;8.23;;;;;;;11.32;100.00;98486.69;4976526;28;20042;-66
2024/03/16 03:16:23;;;;;;;11.65;8.38;;;;;;;11.18;100.00;98484.63;4968054;28;20045;-66
2024/03/16 03:18:51;;;;;;;13.82;8.43;;;;;;;11.29;100.00;98481.78;4979204;28;20039;-66
2024/03/16 03:21:16;;;;;;;14.27;8.95;;;;;;;11.23;100.00;98474.59;4960850;28;20374;-66
2024/03/16 03:23:42;;;;;;;13.75;8.45;;;;;;;11.26;100.00;98476.91;4970343;28;20026;-66
2024/03/16 03:26:09;;;;;;;12.60;8.73;;;;;;;10.95;100.00;98471.28;4974829;28;20033;-66
2024/03/16 03:28:36;;;;;;;12.43;9.48;;;;;;;10.73;100.00;98478.59;4960854;28;20115;-65
2024/03/16 03:31:03;;;;;;;13.85;9.82;;;;;;;10.82;100.00;98468.25;4966041;28;20460;-66
2024/03/16 03:33:28;;;;;;;14.63;9.32;;;;;;;10.94;100.00;98464.47;4976253;28;20034;-66
2024/03/16 03:35:57;;;;;;;13.13;10.10;;;;;;;11.00;100.00;98470.84;4961386;28;20038;-66
2024/03/16 03:38:25;;;;;;;12.00;8.88;;;;;;;10.81;100.00;98456.22;4961176;28;20046;-66
2024/03/16 03:40:52;;;;;;;12.93;9.27;;;;;;;10.49;100.00;98486.97;4982786;28;20091;-67
2024/03/16 03:43:21;;;;;;;15.85;9.48;;;;;;;10.25;100.00;98484.88;4966208;28;20050;-67
2024/03/16 03:45:50;;;;;;;12.37;8.97;;;;;;;10.44;100.00;98497.00;4957327;28;20030;-67
2024/03/16 03:50:51;;;;;;;13.00;9.25;;;;;;;10.31;100.00;98479.16;4974451;28;20050;-66
2024/03/16 03:53:18;;;;;;;14.17;8.53;;;;;;;10.27;100.00;98487.34;4953343;28;20117;-67
2024/03/16 03:55:48;;;;;;;12.45;8.98;;;;;;;10.32;100.00;98498.97;4969787;28;20548;-67
2024/03/16 03:58:16;;;;;;;12.55;9.10;;;;;;;9.91;100.00;98510.63;4954565;28;20119;-67
2024/03/16 04:00:47;;;;;;;16.88;10.18;;;;;;;9.46;100.00;98467.22;4952303;28;20584;-67
2024/03/16 04:03:13;;;;;;;13.85;9.40;;;;;;;9.75;100.00;98512.06;4979363;28;20527;-66
2024/03/16 04:05:39;;;;;;;18.55;10.70;;;;;;;9.57;100.00;98461.84;4935804;28;20058;-66
2024/03/16 04:08:07;;;;;;;14.18;9.93;;;;;;;9.77;100.00;98504.13;4951196;28;20448;-66
2024/03/16 04:10:35;;;;;;;14.90;9.90;;;;;;;10.03;100.00;98501.69;4949342;28;20065;-67
2024/03/16 04:13:04;;;;;;;15.55;10.02;;;;;;;10.16;100.00;98501.34;4954613;28;20042;-67
2024/03/16 04:15:31;;;;;;;13.10;9.43;;;;;;;10.04;100.00;98508.53;4959341;28;20096;-67
2024/03/16 04:17:57;;;;;;;15.70;9.00;;;;;;;10.10;100.00;98500.16;4955857;28;20123;-67
2024/03/16 04:20:23;;;;;;;12.95;9.65;;;;;;;10.22;100.00;98490.38;4951655;28;20039;-67
2024/03/16 04:22:51;;;;;;;14.65;9.93;;;;;;;10.05;100.00;98501.56;4958335;28;20526;-67
2024/03/16 04:25:21;;;;;;;14.77;9.05;;;;;;;9.98;100.00;98494.34;4956927;28;20126;-66
2024/03/16 04:27:49;;;;;;;14.13;10.30;;;;;;;9.85;100.00;98467.06;4963088;28;20042;-67
2024/03/16 04:30:14;;;;;;;13.15;9.32;;;;;;;10.09;100.00;98497.69;4953446;28;20068;-66
2024/03/16 04:32:40;;;;;;;15.05;9.43;;;;;;;9.93;100.00;98456.75;4944967;28;20373;-66
2024/03/16 04:35:11;;;;;;;13.73;9.55;;;;;;;10.29;100.00;98504.41;4946770;28;20030;-66
2024/03/16 04:37:38;;;;;;;13.80;10.00;;;;;;;10.01;100.00;98477.66;4939448;28;20047;-66
2024/03/16 04:40:04;;;;;;;14.23;9.65;;;;;;;10.17;100.00;98522.00;4970915;28;20054;-67
2024/03/16 04:42:32;;;;;;;15.38;9.50;;;;;;;10.18;100.00;98526.25;4981840;28;20050;-68
2024/03/16 04:44:57;;;;;;;13.23;9.35;;;;;;;10.05;100.00;98543.13;4954389;28;20048;-67
2024/03/16 04:47:23;;;;;;;14.50;9.73;;;;;;;10.08;100.00;98546.25;4964535;28;20042;-66
2024/03/16 04:49:48;;;;;;;15.73;10.00;;;;;;;10.01;100.00;98537.38;4971383;28;20346;-66
2024/03/16 04:52:15;;;;;;;13.70;9.82;;;;;;;9.94;100.00;98521.53;4992974;28;20045;-67
2024/03/16 04:54:43;;;;;;;15.18;9.68;;;;;;;9.91;100.00;98521.84;4966360;28;20124;-68
2024/03/16 04:57:10;;;;;;;15.88;9.68;;;;;;;9.78;100.00;98511.78;4970103;28;20165;-67
2024/03/16 04:59:36;;;;;;;14.05;9.02;;;;;;;9.86;100.00;98503.28;4986850;28;20030;-67
2024/03/16 05:02:03;;;;;;;12.20;9.45;;;;;;;9.95;100.00;98507.59;4971256;28;20170;-67
2024/03/16 05:04:32;;;;;;;13.75;10.20;;;;;;;10.03;100.00;98506.88;4980254;28;20044;-65
2024/03/16 05:07:00;;;;;;;15.07;9.63;;;;;;;9.96;100.00;98492.84;4955405;28;20125;-68
2024/03/16 05:09:25;;;;;;;13.38;9.20;;;;;;;10.07;100.00;98492.63;4962235;28;20049;-66
2024/03/16 05:11:51;;;;;;;13.18;9.63;;;;;;;9.73;100.00;98420.50;4959947;28;20438;-66
2024/03/16 05:14:16;;;;;;;13.25;9.35;;;;;;;10.20;100.00;98500.94;4979505;28;20040;-66
2024/03/16 05:16:41;;;;;;;14.77;9.90;;;;;;;10.21;100.00;98525.13;4976841;28;20592;-66
2024/03/16 05:19:07;;;;;;;13.55;10.10;;;;;;;10.07;100.00;98530.81;4983169;28;20053;-66
2024/03/16 05:21:33;;;;;;;17.35;9.95;;;;;;;9.93;100.00;98537.25;4980341;28;20778;-66
2024/03/16 05:23:59;;;;;;;15.13;10.25;;;;;;;9.91;100.00;98536.59;4984005;28;20065;-67
2024/03/16 05:26:25;;;;;;;13.80;10.18;;;;;;;9.99;100.00;98534.13;4994489;28;20129;-67
2024/03/16 05:28:51;;;;;;;13.52;9.63;;;;;;;9.99;100.00;98521.94;4970538;28;20177;-67
2024/03/16 05:31:16;;;;;;;15.88;10.45;;;;;;;9.97;100.00;98533.44;4978666;28;20085;-67
2024/03/16 05:33:42;;;;;;;14.90;10.90;;;;;;;9.93;100.00;98527.72;4981070;28;20486;-66
2024/03/16 05:36:13;;;;;;;14.75;11.07;;;;;;;9.92;100.00;98522.66;4984740;28;20054;-67
2024/03/16 05:38:39;;;;;;;16.25;10.40;;;;;;;9.81;100.00;98523.66;4963374;28;20680;-66
2024/03/16 05:41:08;;;;;;;15.30;10.10;;;;;;;9.39;100.00;98498.06;4982343;28;20041;-66
2024/03/16 05:43:38;;;;;;;14.32;10.05;;;;;;;9.56;100.00;98548.44;4982688;28;20231;-66
2024/03/16 05:46:05;;;;;;;18.52;11.45;;;;;;;9.54;100.00;98543.38;4961721;28;20056;-67
2024/03/16 05:48:33;;;;;;;15.73;11.15;;;;;;;9.64;100.00;98548.56;4962753;28;20128;-67
2024/03/16 05:50:59;;;;;;;15.90;10.80;;;;;;;9.55;100.00;98519.09;4976121;28;20048;-67
2024/03/16 05:53:24;;;;;;;14.43;10.48;;;;;;;9.69;100.00;98548.97;4980140;28;20041;-67
2024/03/16 05:55:50;;;;;;;15.00;10.63;;;;;;;9.84;100.00;98559.72;4962017;28;20764;-66
2024/03/16 05:58:16;;;;;;;13.68;10.10;;;;;;;9.77;100.00;98558.66;4973389;28;20779;-66
2024/03/16 06:00:42;;;;;;;15.40;10.88;;;;;;;9.77;100.00;98572.44;4963661;28;20473;-66
2024/03/16 06:03:07;;;;;;;16.27;10.45;;;;;;;9.62;100.00;98573.88;4977826;28;20030;-67
2024/03/16 06:05:38;;;;;;;14.07;10.27;;;;;;;9.65;100.00;98572.75;4975925;28;20043;-67
2024/03/16 06:08:07;;;;;;;12.30;9.45;;;;;;;9.35;100.00;98527.88;4998096;28;20559;-67
2024/03/16 06:10:33;;;;;;;13.93;9.82;;;;;;;9.74;100.00;98570.13;4974382;28;21338;-66
2024/03/16 06:12:59;;;;;;;14.23;9.80;;;;;;;9.81;100.00;98571.19;4981211;28;20042;-67
2024/03/16 06:15:24;;;;;;;13.77;9.27;;;;;;;9.96;100.00;98584.56;4972562;28;20053;-67
2024/03/16 06:17:50;;;;;;;12.68;9.07;;;;;;;9.82;100.00;98567.66;4991370;28;20774;-67
2024/03/16 06:20:16;;;;;;;13.02;9.52;;;;;;;9.81;100.00;98597.16;4961791;28;20692;-66
2024/03/16 06:22:42;;;;;;;14.02;9.35;;;;;;;9.73;100.00;98596.22;4962820;28;20100;-67
2024/03/16 06:25:08;;;;;;;15.55;10.60;;;;;;;9.72;100.00;98599.81;4960495;28;20469;-66
2024/03/16 06:27:43;;;;;;;16.15;10.15;;;;;;;9.84;100.00;98603.88;4972013;28;20037;-65
2024/03/16 06:30:13;;;;;;;15.15;9.93;;;;;;;9.55;100.00;98565.00;4982069;28;20357;-67
2024/03/16 06:32:48;;;;;;;;;;;;;;;9.86;100.00;98607.16;4979430;28;20790;-66
2024/03/16 06:35:13;;;;;;;12.50;8.43;;;;;;;9.85;100.00;98589.91;4963496;28;19922;-67
2024/03/16 06:37:39;;;;;;;12.40;8.98;;;;;;;10.00;100.00;98598.06;4986455;28;20137;-66
2024/03/16 06:40:10;;;;;;;13.75;9.02;;;;;;;10.00;100.00;98600.69;4984630;28;20779;-68
2024/03/16 06:42:38;;;;;;;14.75;9.63;;;;;;;10.00;100.00;98617.09;4979907;28;20053;-67
2024/03/16 06:45:06;;;;;;;15.25;10.23;;;;;;;9.87;100.00;98620.94;4968065;28;20496;-66
2024/03/16 06:47:31;;;;;;;15.02;9.35;;;;;;;9.86;100.00;98612.34;4998106;28;20126;-65
2024/03/16 06:49:59;;;;;;;14.27;10.05;;;;;;;9.73;100.00;98607.44;4961371;28;21040;-65
2024/03/16 06:52:25;;;;;;;16.90;9.43;;;;;;;9.80;100.00;98621.53;5018829;28;20049;-66
2024/03/16 06:54:53;;;;;;;14.55;10.70;;;;;;;9.80;100.00;98625.88;4980575;28;20914;-66
2024/03/16 06:57:23;;;;;;;14.88;9.45;;;;;;;9.77;100.00;98611.41;4978274;28;20129;-66
2024/03/16 06:59:48;;;;;;;16.38;9.73;;;;;;;9.78;100.00;98615.66;4961863;28;20481;-67
2024/03/16 07:02:14;;;;;;;15.52;9.75;;;;;;;9.73;100.00;98599.66;4981330;28;20045;-66
2024/03/16 07:04:39;;;;;;;14.85;10.50;;;;;;;9.66;100.00;98608.16;4982661;28;20026;-66
2024/03/16 07:07:07;;;;;;;17.38;10.57;;;;;;;9.62;100.00;98608.44;4977368;28;20042;-67
2024/03/16 07:09:35;;;;;;;12.48;9.70;;;;;;;9.55;100.00;98611.72;4982786;28;20042;-67
2024/03/16 07:12:02;;;;;;;13.73;10.23;;;;;;;9.39;100.00;98568.97;4961820;28;20033;-68
2024/03/16 07:14:30;;;;;;;12.75;9.93;;;;;;;9.67;100.00;98617.56;4970367;28;20065;-67
2024/03/16 07:16:56;;;;;;;13.95;9.10;;;;;;;9.53;100.00;98590.28;4967862;28;20046;-67
2024/03/16 07:19:23;;;;;;;14.05;9.50;;;;;;;9.76;100.00;98619.31;4986550;28;20366;-67
2024/03/16 07:21:50;;;;;;;14.68;9.85;;;;;;;9.89;100.00;98626.81;4960933;28;20595;-67
2024/03/16 07:24:18;;;;;;;12.35;9.45;;;;;;;9.88;100.00;98626.00;4982225;28;20033;-68
2024/03/16 07:26:46;;;;;;;13.93;10.10;;;;;;;9.95;100.00;98632.28;4989182;28;20042;-66
2024/03/16 07:29:11;;;;;;;14.93;10.50;;;;;;;9.95;100.00;98634.88;4977340;28;20041;-66
2024/03/16 07:31:37;;;;;;;13.90;9.73;;;;;;;10.03;100.00;98634.19;4975773;28;20409;-67
2024/03/16 07:34:06;;;;;;;15.55;9.85;;;;;;;10.09;100.00;98625.00;4977464;28;20037;-67
2024/03/16 07:36:31;;;;;;;15.88;10.35;;;;;;;10.05;100.00;98634.03;4964772;28;20725;-66
2024/03/16 07:38:59;;;;;;;13.07;10.10;;;;;;;9.99;100.00;98631.03;4971344;28;20042;-66
2024/03/16 07:41:25;;;;;;;14.88;9.82;;;;;;;10.08;100.00;98637.19;5001664;28;20132;-67
2024/03/16 07:43:50;;;;;;;15.30;10.05;;;;;;;10.11;100.00;98642.09;4973723;28;20152;-66
2024/03/16 07:46:16;;;;;;;14.50;10.90;;;;;;;10.12;100.00;98646.31;4978844;28;20053;-67
2024/03/16 07:48:41;;;;;;;17.38;10.43;;;;;;;10.16;100.00;98647.66;4986799;28;20499;-65
2024/03/16 07:51:09;;;;;;;13.80;9.55;;;;;;;10.17;100.00;98649.31;4975691;28;20688;-66
2024/03/16 07:53:35;;;;;;;14.73;10.48;;;;;;;10.15;100.00;98651.25;4966367;28;20052;-66
2024/03/16 07:56:01;;;;;;;15.27;10.00;;;;;;;10.00;100.00;98658.66;4974050;28;20037;-66
2024/03/16 07:58:27;;;;;;;14.40;10.07;;;;;;;9.85;100.00;98656.63;4991655;28;20145;-65
2024/03/16 08:00:54;;;;;;;15.43;10.70;;;;;;;9.54;100.00;98620.44;4977650;28;20725;-65
2024/03/16 08:03:23;;;;;;;15.07;10.30;;;;;;;9.79;100.00;98674.41;4990525;28;20072;-67
2024/03/16 08:05:48;;;;;;;15.25;10.85;;;;;;;9.86;100.00;98669.47;4977105;28;20133;-66
2024/03/16 08:08:16;;;;;;;13.65;10.45;;;;;;;9.91;100.00;98658.66;4990743;28;20049;-66
2024/03/16 08:10:41;;;;;;;14.32;10.32;;;;;;;10.03;100.00;98659.34;4971026;28;20041;-66
2024/03/16 08:13:06;;;;;;;13.75;10.43;;;;;;;9.91;100.00;98661.25;4989033;28;20034;-66
2024/03/16 08:15:34;;;;;;;14.32;10.60;;;;;;;9.94;100.00;98661.00;4990423;28;20474;-67
2024/03/16 08:18:00;;;;;;;15.55;11.02;;;;;;;9.84;100.00;98663.63;4974748;28;20044;-67
2024/03/16 08:20:26;;;;;;;14.10;10.38;;;;;;;9.82;100.00;98650.75;4971308;28;20057;-66
2024/03/16 08:22:54;;;;;;;15.25;11.10;;;;;;;9.79;100.00;98655.41;4975743;28;20473;-65
2024/03/16 08:25:25;;;;;;;14.40;11.18;;;;;;;9.93;100.00;98654.97;4983496;28;20493;-66
2024/03/16 08:27:50;;;;;;;14.63;9.90;;;;;;;9.96;100.00;98659.88;4962711;28;20037;-64
2024/03/16 08:30:15;;;;;;;16.75;10.82;;;;;;;9.99;100.00;98657.00;4979252;28;20046;-65
2024/03/16 08:32:42;;;;;;;13.75;10.23;;;;;;;10.01;100.00;98641.28;4991195;28;20373;-65
2024/03/16 08:35:07;;;;;;;16.33;11.07;;;;;;;10.16;100.00;98667.66;4982520;28;20046;-66
2024/03/16 08:37:33;;;;;;;15.98;10.50;;;;;;;10.13;100.00;98655.78;4994810;28;20042;-65
2024/03/16 08:39:59;;;;;;;14.73;10.45;;;;;;;10.19;100.00;98655.19;4979831;28;20559;-65
2024/03/16 08:42:27;;;;;;;14.18;10.38;;;;;;;10.17;100.00;98654.53;4995450;28;20069;-67
2024/03/16 08:44:54;;;;;;;14.18;10.82;;;;;;;10.08;100.00;98657.16;4969294;28;20030;-65
2024/03/16 08:47:20;;;;;;;15.02;10.48;;;;;;;9.90;100.00;98655.25;4990282;28;20080;-66
2024/03/16 08:49:48;;;;;;;16.33;11.15;;;;;;;9.90;100.00;98662.25;4987184;28;20858;-68
2024/03/16 08:52:13;;;;;;;22.55;14.43;;;;;;;9.77;100.00;98629.56;4973151;28;20058;-66
2024/03/16 08:54:41;;;;;;;20.42;13.73;;;;;;;9.95;100.00;98653.06;4979639;28;20027;-67
2024/03/16 08:57:08;;;;;;;22.88;14.68;;;;;;;9.94;100.00;98648.00;4967605;28;20551;-68
2024/03/16 08:59:38;;;;;;;20.50;12.35;;;;;;;10.06;100.00;98656.44;4960427;28;20280;-66
2024/03/16 09:02:03;;;;;;;19.08;12.70;;;;;;;10.09;100.00;98654.38;4971979;28;20050;-66
2024/03/16 09:04:29;;;;;;;20.45;12.48;;;;;;;10.18;100.00;98658.75;4973099;28;20507;-67
2024/03/16 09:06:55;;;;;;;17.48;11.80;;;;;;;9.85;100.00;98610.69;4993898;28;20132;-66
2024/03/16 09:09:22;;;;;;;12.30;7.97;;;;;;;10.12;100.00;98646.31;4993668;28;20048;-66
2024/03/16 09:11:50;;;;;;;10.65;6.70;;;;;;;10.26;100.00;98655.47;4974084;28;20049;-67
2024/03/16 09:14:17;;;;;;;12.40;8.68;;;;;;;10.32;100.00;98651.50;4974093;28;20731;-66
2024/03/16 09:16:48;;;;;;;14.35;8.68;;;;;;;10.26;100.00;98654.63;4956794;28;20078;-67
2024/03/16 09:19:14;;;;;;;14.18;7.57;;;;;;;9.80;100.00;98615.47;4984318;28;20133;-67
2024/03/16 09:21:41;;;;;;;13.13;6.97;;;;;;;9.85;100.00;98610.69;4977116;28;20037;-66
2024/03/16 09:24:09;;;;;;;10.55;6.43;;;;;;;10.31;100.00;98653.28;4980877;28;20412;-65
2024/03/16 09:26:37;;;;;;;11.65;7.18;;;;;;;10.53;100.00;98640.88;4964696;28;21179;-66
2024/03/16 09:29:02;;;;;;;11.05;7.07;;;;;;;10.68;100.00;98643.84;4979298;28;20049;-66
2024/03/16 09:31:27;;;;;;;15.48;10.98;;;;;;;10.77;100.00;98627.38;4975751;28;20045;-65
2024/03/16 09:33:53;;;;;;;18.60;11.90;;;;;;;10.98;100.00;98636.69;4993384;28;20058;-66
2024/03/16 09:36:19;;;;;;;14.95;9.10;;;;;;;11.05;100.00;98630.75;4976448;28;20054;-66
2024/03/16 09:38:44;;;;;;;8.80;6.40;;;;;;;11.25;100.00;98643.63;4994032;28;20081;-66
2024/03/16 09:41:20;;;;;;;10.52;5.70;;;;;;;11.22;100.00;98603.06;4980815;28;20049;-66
2024/03/16 09:43:49;;;;;;;7.28;3.60;;;;;;;11.55;100.00;98642.41;4956492;28;20045;-67
2024/03/16 09:46:19;;;;;;;9.48;6.13;;;;;;;11.68;100.00;98644.63;4961201;28;20078;-66
2024/03/16 09:48:44;;;;;;;11.77;7.20;;;;;;;12.04;100.00;98642.00;4990539;28;20133;-66
2024/03/16 09:51:15;;;;;;;8.57;5.20;;;;;;;12.19;100.00;98645.66;4975710;28;20044;-66
2024/03/16 09:53:41;;;;;;;8.50;5.72;;;;;;;12.16;100.00;98646.00;4988667;28;20069;-65
2024/03/16 09:56:11;;;;;;;7.97;4.05;;;;;;;12.27;100.00;98637.91;4963933;28;20037;-66
2024/03/16 09:58:36;;;;;;;;;;;;;;;12.28;100.00;98638.72;4990986;28;20033;-66
2024/03/16 10:01:03;;;;;;;9.15;4.40;;;;;;;12.24;100.00;98606.91;4992530;28;19988;-66
2024/03/16 10:03:30;;;;;;;7.43;4.38;;;;;;;12.50;100.00;98646.00;4976734;28;20034;-66
2024/03/16 10:05:59;;;;;;;6.13;3.05;;;;;;;12.64;100.00;98638.56;4959902;28;20052;-66
2024/03/16 10:08:25;;;;;;;4.83;2.70;;;;;;;12.49;100.00;98597.41;4970757;28;20156;-65
2024/03/16 10:11:10;;;;;;;7.05;2.78;;;;;;;12.98;100.00;98638.50;4968967;28;20038;-66
2024/03/16 10:13:37;;;;;;;5.25;2.70;;;;;;;13.30;100.00;98639.53;4973880;28;20070;-66
2024/03/16 10:16:06;;;;;;;7.57;2.58;;;;;;;13.44;100.00;98631.09;4951150;28;20038;-65
2024/03/16 10:18:35;;;;;;;5.60;2.63;;;;;;;13.62;100.00;98625.72;4974251;28;20022;-65
2024/03/16 10:21:04;;;;;;;6.00;2.40;;;;;;;13.73;100.00;98629.00;4978177;28;20038;-67
2024/03/16 10:23:31;;;;;;;5.63;1.90;;;;;;;13.90;94.45;98625.38;4986471;28;20042;-66
2024/03/16 10:25:57;;;;;;;5.53;2.05;;;;;;;14.05;96.42;98622.88;4983640;28;20062;-66
2024/03/16 10:28:24;;;;;;;5.20;1.98;;;;;;;14.01;96.36;98621.59;4953372;28;20437;-65
2024/03/16 10:30:49;;;;;;;5.25;1.60;;;;;;;14.07;95.52;98620.09;4963451;28;20114;-65
2024/03/16 10:33:18;;;;;;;4.15;1.70;;;;;;;14.22;91.52;98624.50;4952643;28;20424;-65
2024/03/16 10:35:44;;;;;;;5.47;1.70;;;;;;;14.47;89.26;98627.00;4968712;28;20034;-65
2024/03/16 10:38:12;;;;;;;3.92;1.60;;;;;;;14.53;77.88;98638.59;4967733;28;20045;-65
2024/03/16 10:40:39;;;;;;;4.90;1.83;;;;;;;14.33;76.35;98589.31;4968130;28;20272;-66
2024/03/16 10:43:15;;;;;;;4.10;1.67;;;;;;;14.65;77.22;98628.63;4937884;28;20074;-66
2024/03/16 10:45:47;;;;;;;4.43;1.80;;;;;;;14.69;73.69;98617.63;4967018;28;20837;-66
2024/03/16 10:48:17;;;;;;;6.38;1.80;;;;;;;14.65;73.68;98620.78;4960786;28;20125;-66
2024/03/16 10:50:48;;;;;;;;;;;;;;;14.60;73.00;98616.88;4941217;28;20042;-66
2024/03/16 10:53:18;;;;;;;5.18;1.70;;;;;;;14.55;72.68;98615.72;4961200;28;19921;-66
2024/03/16 10:55:50;;;;;;;3.97;1.55;;;;;;;14.66;70.37;98622.38;4951335;28;20129;-65
2024/03/16 10:58:23;;;;;;;4.63;1.60;;;;;;;14.77;73.58;98619.41;4951368;28;20057;-65
2024/03/16 11:00:49;;;;;;;5.88;2.50;;;;;;;14.63;74.85;98575.66;4938515;28;20129;-64
2024/03/16 11:03:28;;;;;;;3.83;1.38;;;;;;;15.29;70.57;98613.50;4963033;28;20068;-65
2024/03/16 11:06:14;;;;;;;5.07;1.77;;;;;;;15.55;69.36;98567.78;4941332;28;20138;-66
2024/03/16 11:08:41;;;;;;;4.13;1.60;;;;;;;15.80;69.05;98602.47;4936802;28;20039;-64
2024/03/16 11:11:10;;;;;;;4.20;1.63;;;;;;;15.75;68.03;98597.78;4951758;28;20072;-65
2024/03/16 11:13:36;;;;;;;6.82;1.70;;;;;;;15.55;67.57;98558.13;4961762;28;20074;-65
2024/03/16 11:16:25;;;;;;;3.47;1.35;;;;;;;15.73;67.16;98605.00;4966701;28;20117;-65
2024/03/16 11:18:55;;;;;;;3.63;1.40;;;;;;;15.69;65.39;98606.31;4946806;28;20201;-66
2024/03/16 11:21:22;;;;;;;4.90;1.70;;;;;;;15.69;68.04;98598.47;4947022;28;20248;-67